createdAt,value
2022-12-17T00:02:58.130Z,99467.34
2022-12-17T00:08:20.072Z,99480.97
2022-12-17T00:13:41.334Z,99470.03
2022-12-17T00:19:01.946Z,99476.56
2022-12-17T00:24:24.687Z,99479.28
2022-12-17T00:29:44.998Z,99479.81
2022-12-17T00:35:05.375Z,99488.44
2022-12-17T00:40:28.113Z,99491.53
2022-12-17T00:46:03.145Z,99494.03
2022-12-17T00:51:23.870Z,99511.25
2022-12-17T00:56:45.395Z,99515.44
2022-12-17T01:02:06.275Z,99522.34
2022-12-17T01:07:26.992Z,99530.66
2022-12-17T01:12:59.855Z,99525.75
2022-12-17T01:18:20.294Z,99538.13
2022-12-17T01:23:40.427Z,99535.13
2022-12-17T01:29:02.256Z,99543.16
2022-12-17T01:34:22.786Z,99558.13
2022-12-17T01:39:42.994Z,99554.16
2022-12-17T01:45:10.814Z,99553.34
2022-12-17T01:50:32.482Z,99548.38
2022-12-17T01:55:53.240Z,99560.16
2022-12-17T02:01:14.856Z,99570.28
2022-12-17T02:06:40.662Z,99562.09
2022-12-17T02:12:10.562Z,99571.97
2022-12-17T02:17:38.517Z,99576.06
2022-12-17T02:23:10.149Z,99580.03
2022-12-17T02:28:32.088Z,99579.91
2022-12-17T02:33:52.947Z,99578.13
2022-12-17T02:39:13.202Z,99572.19
2022-12-17T02:44:37.875Z,99580.66
2022-12-17T02:49:58.255Z,99586.91
2022-12-17T02:55:18.804Z,99580.34
2022-12-17T03:00:40.807Z,99589.13
2022-12-17T03:06:02.038Z,99594.91
2022-12-17T03:11:22.874Z,99599.66
2022-12-17T03:16:44.297Z,99596.00
2022-12-17T03:22:05.010Z,99603.00
2022-12-17T03:27:25.134Z,99608.56
2022-12-17T03:32:46.639Z,99611.22
2022-12-17T03:38:06.746Z,99612.91
2022-12-17T03:43:27.938Z,99620.13
2022-12-17T03:48:49.795Z,99624.19
2022-12-17T03:54:10.259Z,99628.72
2022-12-17T03:59:30.657Z,99626.44
2022-12-17T04:04:52.246Z,99630.66
2022-12-17T04:10:12.448Z,99635.56
2022-12-17T04:15:32.523Z,99640.19
2022-12-17T04:20:54.085Z,99646.94
2022-12-17T04:26:14.518Z,99657.38
2022-12-17T04:31:35.122Z,99671.97
2022-12-17T04:36:57.695Z,99680.88
2022-12-17T04:42:18.271Z,99681.97
2022-12-17T04:47:38.435Z,99675.09
2022-12-17T04:52:59.840Z,99678.69
2022-12-17T04:58:21.217Z,99687.66
2022-12-17T05:03:41.599Z,99690.22
2022-12-17T05:09:03.831Z,99690.50
2022-12-17T05:14:24.048Z,99693.25
2022-12-17T05:19:44.484Z,99701.41
2022-12-17T05:25:06.232Z,99710.31
2022-12-17T05:30:27.287Z,99720.19
2022-12-17T05:35:47.434Z,99735.44
2022-12-17T05:41:10.623Z,99736.16
2022-12-17T05:46:30.813Z,99743.53
2022-12-17T05:51:51.047Z,99742.28
2022-12-17T05:57:13.313Z,99748.84
2022-12-17T06:02:33.808Z,99750.63
2022-12-17T06:07:54.033Z,99758.34
2022-12-17T06:13:16.096Z,99766.81
2022-12-17T06:18:36.357Z,99765.47
2022-12-17T06:23:56.761Z,99762.38
2022-12-17T06:29:18.308Z,99773.91
2022-12-17T06:34:38.692Z,99787.84
2022-12-17T06:39:58.875Z,99788.66
2022-12-17T06:45:20.273Z,99790.56
2022-12-17T06:50:40.445Z,99802.03
2022-12-17T06:56:00.489Z,99803.34
2022-12-17T07:01:22.451Z,99811.44
2022-12-17T07:06:57.340Z,99823.78
2022-12-17T07:12:17.961Z,99828.25
2022-12-17T07:17:39.792Z,99838.72
2022-12-17T07:23:00.474Z,99841.97
2022-12-17T07:28:20.841Z,99849.63
2022-12-17T07:33:42.692Z,99855.41
2022-12-17T07:39:03.194Z,99852.38
2022-12-17T07:44:23.621Z,99857.53
2022-12-17T07:49:47.706Z,99859.09
2022-12-17T07:55:08.034Z,99868.34
2022-12-17T08:00:29.763Z,99880.94
2022-12-17T08:05:51.422Z,99883.22
2022-12-17T08:11:11.746Z,99884.38
2022-12-17T08:16:32.229Z,99901.06
2022-12-17T08:21:53.828Z,99908.59
2022-12-17T08:27:14.155Z,99910.50
2022-12-17T08:32:42.714Z,99924.41
2022-12-17T08:38:04.568Z,99929.94
2022-12-17T08:43:25.338Z,99937.00
2022-12-17T08:48:45.405Z,99946.50
2022-12-17T08:54:07.020Z,99946.22
2022-12-17T08:59:26.998Z,99944.31
2022-12-17T09:04:47.508Z,99949.13
2022-12-17T09:10:09.156Z,99958.88
2022-12-17T09:15:29.580Z,99968.31
2022-12-17T09:20:49.851Z,99976.38
2022-12-17T09:26:15.739Z,99969.88
2022-12-17T09:31:37.699Z,99961.91
2022-12-17T09:36:58.278Z,99968.31
2022-12-17T09:42:45.507Z,99976.56
2022-12-17T09:48:16.496Z,99980.03
2022-12-17T09:53:41.889Z,99986.03
2022-12-17T09:59:03.548Z,99980.53
2022-12-17T10:04:29.718Z,99980.38
2022-12-17T10:09:52.102Z,99997.50
2022-12-17T10:15:13.994Z,100004.75
2022-12-17T10:20:39.771Z,100006.53
2022-12-17T10:26:09.706Z,100001.16
2022-12-17T10:31:37.251Z,100012.34
2022-12-17T10:37:04.055Z,100016.75
2022-12-17T10:42:38.457Z,100016.38
2022-12-17T10:48:02.595Z,100022.16
2022-12-17T10:53:36.891Z,100018.66
2022-12-17T10:59:03.830Z,100019.91
2022-12-17T11:04:42.787Z,100026.19
2022-12-17T11:10:09.533Z,100034.81
2022-12-17T11:15:37.857Z,100032.25
2022-12-17T11:21:06.357Z,100043.41
2022-12-17T11:26:32.025Z,100032.97
2022-12-17T11:32:04.185Z,100038.06
2022-12-17T11:37:35.849Z,100048.53
2022-12-17T11:43:01.835Z,100041.41
2022-12-17T11:48:30.222Z,100042.94
2022-12-17T11:54:08.152Z,100038.06
2022-12-17T11:59:36.628Z,100043.53
2022-12-17T12:05:13.553Z,100048.78
2022-12-17T12:10:38.387Z,100054.88
2022-12-17T12:16:10.873Z,100058.09
2022-12-17T12:21:52.246Z,100060.50
2022-12-17T12:27:23.712Z,100059.38
2022-12-17T12:32:51.891Z,100066.63
2022-12-17T12:38:13.189Z,100069.53
2022-12-17T12:43:40.590Z,100067.34
2022-12-17T12:49:07.483Z,100080.22
2022-12-17T12:54:46.206Z,100081.16
2022-12-17T13:00:08.451Z,100070.84
2022-12-17T13:05:35.378Z,100087.38
2022-12-17T13:10:38.930Z,100093.22
2022-12-17T13:15:48.607Z,100088.78
2022-12-17T13:21:00.111Z,100099.44
2022-12-17T13:26:21.848Z,100099.22
2022-12-17T13:31:28.995Z,100106.25
2022-12-17T13:36:39.011Z,100113.75
2022-12-17T13:41:42.109Z,100117.47
2022-12-17T13:46:48.596Z,100117.16
2022-12-17T13:52:06.493Z,100130.50
2022-12-17T13:57:16.446Z,100136.38
2022-12-17T14:02:27.392Z,100144.31
2022-12-17T14:07:31.568Z,100152.81
2022-12-17T14:12:35.509Z,100169.72
2022-12-17T14:17:45.220Z,100172.09
2022-12-17T14:22:52.049Z,100176.78
2022-12-17T14:27:57.062Z,100193.28
2022-12-17T14:33:01.348Z,100193.66
2022-12-17T14:38:04.895Z,100197.81
2022-12-17T14:43:08.240Z,100198.13
2022-12-17T14:48:17.040Z,100203.69
2022-12-17T14:53:26.642Z,100210.38
2022-12-17T14:58:29.557Z,100218.47
2022-12-17T15:03:36.076Z,100219.13
2022-12-17T15:08:43.076Z,100233.19
2022-12-17T15:13:47.374Z,100230.84
2022-12-17T15:18:53.446Z,100233.72
2022-12-17T15:23:56.369Z,100238.84
2022-12-17T15:28:59.476Z,100242.19
2022-12-17T15:34:03.803Z,100246.03
2022-12-17T15:39:07.295Z,100261.06
2022-12-17T15:44:10.448Z,100250.19
2022-12-17T15:49:14.843Z,100252.00
2022-12-17T15:54:17.716Z,100247.97
2022-12-17T15:59:20.711Z,100254.84
2022-12-17T16:04:25.617Z,100268.34
2022-12-17T16:09:29.729Z,100279.56
2022-12-17T16:14:32.588Z,100276.75
2022-12-17T16:19:37.258Z,100282.13
2022-12-17T16:24:40.993Z,100286.28
2022-12-17T16:29:43.980Z,100285.75
2022-12-17T16:34:48.275Z,100283.09
2022-12-17T16:39:56.628Z,100286.94
2022-12-17T16:45:02.770Z,100292.44
2022-12-17T16:50:07.564Z,100301.13
2022-12-17T16:55:10.911Z,100301.09
2022-12-17T17:00:14.933Z,100312.38
2022-12-17T17:05:19.214Z,100317.81
2022-12-17T17:10:22.145Z,100318.03
2022-12-17T17:15:25.368Z,100322.19
2022-12-17T17:20:32.444Z,100321.31
2022-12-17T17:25:57.804Z,100338.19
2022-12-17T17:31:00.329Z,100339.72
2022-12-17T17:36:09.991Z,100342.72
2022-12-17T17:41:15.237Z,100340.06
2022-12-17T17:46:19.723Z,100342.84
2022-12-17T17:51:52.113Z,100346.41
2022-12-17T17:56:48.828Z,100335.06
2022-12-17T18:01:52.567Z,100343.19
2022-12-17T18:12:37.279Z,100357.00
2022-12-17T18:17:40.185Z,100366.25
2022-12-17T18:22:45.953Z,100374.47
2022-12-17T18:27:49.308Z,100377.91
2022-12-17T18:32:52.185Z,100388.97
2022-12-17T18:37:56.628Z,100384.28
2022-12-17T18:43:16.857Z,100390.47
2022-12-17T18:48:20.266Z,100394.88
2022-12-17T18:53:25.922Z,100405.09
2022-12-17T18:58:28.838Z,100415.19
2022-12-17T19:03:31.822Z,100413.16
2022-12-17T19:08:37.723Z,100421.66
2022-12-17T19:13:41.214Z,100426.66
2022-12-17T19:18:44.940Z,100433.94
2022-12-17T19:23:49.898Z,100430.25
2022-12-17T19:28:54.145Z,100421.00
2022-12-17T19:33:58.237Z,100435.59
2022-12-17T19:39:04.456Z,100444.53
2022-12-17T19:44:09.065Z,100441.63
2022-12-17T19:49:13.217Z,100453.41
2022-12-17T19:54:17.605Z,100449.66
2022-12-17T19:59:20.571Z,100457.38
2022-12-17T20:04:23.469Z,100462.91
2022-12-17T20:09:27.839Z,100466.06
2022-12-17T20:14:31.586Z,100470.34
2022-12-17T20:19:35.356Z,100468.59
2022-12-17T20:24:39.776Z,100475.34
2022-12-17T20:29:42.711Z,100470.13
2022-12-17T20:34:45.635Z,100494.41
2022-12-17T20:39:49.879Z,100490.97
2022-12-17T20:44:53.675Z,100489.00
2022-12-17T20:49:56.722Z,100494.19
2022-12-17T20:55:00.967Z,100504.41
2022-12-17T21:00:04.117Z,100505.09
2022-12-17T21:05:07.727Z,100503.72
2022-12-17T21:10:12.685Z,100507.03
2022-12-17T21:15:15.650Z,100507.34
2022-12-17T21:20:18.623Z,100529.97
2022-12-17T21:25:23.278Z,100518.88
2022-12-17T21:30:26.243Z,100514.38
2022-12-17T21:35:29.198Z,100523.31
2022-12-17T21:40:36.238Z,100527.91
2022-12-17T21:45:40.502Z,100544.47
2022-12-17T21:50:44.511Z,100548.19
2022-12-17T21:55:50.010Z,100557.59
2022-12-17T22:00:53.332Z,100546.16
2022-12-17T22:05:56.196Z,100541.97
2022-12-17T22:11:00.504Z,100544.66
2022-12-17T22:16:06.991Z,100545.25
2022-12-17T22:21:09.940Z,100550.66
2022-12-17T22:26:16.070Z,100554.88
2022-12-17T22:31:38.172Z,100571.34
2022-12-17T22:38:47.874Z,100574.91
2022-12-17T22:44:41.156Z,100578.00
2022-12-17T22:47:47.617Z,100582.53
2022-12-17T22:52:50.523Z,100589.97
2022-12-17T22:57:55.210Z,100588.44
2022-12-17T23:02:58.260Z,100592.41
2022-12-17T23:08:01.340Z,100588.56
2022-12-17T23:13:05.583Z,100595.81
2022-12-17T23:18:09.027Z,100597.28
2022-12-17T23:23:11.918Z,100597.19
2022-12-17T23:28:16.171Z,100599.09
2022-12-17T23:33:19.024Z,100621.94
2022-12-17T23:38:21.884Z,100617.25
2022-12-17T23:43:26.152Z,100612.25
2022-12-17T23:48:31.806Z,100602.66
2022-12-17T23:53:36.154Z,100606.47
2022-12-17T23:58:41.977Z,100610.41
